Time;durP1;ratioP1;P1;durP2;ratioP2;P2;SDS_P1;SDS_P2;PMS_P1;PMS_P2;Temp;Humidity;BMP_temperature;BMP_pressure;BME280_temperature;BME280_humidity;BME280_pressure;Samples;Min_cycle;Max_cycle;Signal;HPM_P1;HPM_P2
2022/07/15 00:00:24;;;;;;;7.47;1.92;;;15.60;99.90;;;;;;5061011;28;20157;-62
2022/07/15 00:02:49;;;;;;;12.15;2.65;;;15.60;99.90;;;;;;5024232;28;1111575;-62
2022/07/15 00:05:15;;;;;;;8.00;1.92;;;15.60;99.90;;;;;;5070738;28;20093;-62
2022/07/15 00:07:41;;;;;;;11.25;2.17;;;15.70;99.90;;;;;;5068908;28;20169;-62
2022/07/15 00:10:18;;;;;;;9.80;2.10;;;15.70;99.90;;;;;;5063444;28;20051;-62
2022/07/15 00:12:52;;;;;;;12.80;2.38;;;15.70;99.90;;;;;;5071636;28;20125;-61
2022/07/15 00:15:21;;;;;;;8.60;1.92;;;15.70;99.90;;;;;;5069611;28;20051;-61
2022/07/15 00:17:47;;;;;;;13.00;3.15;;;15.70;99.90;;;;;;5060735;28;20151;-61
2022/07/15 00:20:14;;;;;;;8.52;1.88;;;15.80;99.90;;;;;;5068475;28;20040;-62
2022/07/15 00:22:42;;;;;;;11.60;2.38;;;15.70;99.90;;;;;;5071373;28;20067;-61
2022/07/15 00:25:09;;;;;;;8.70;1.95;;;15.70;99.90;;;;;;5069686;28;20062;-62
2022/07/15 00:27:34;;;;;;;8.38;1.98;;;15.70;99.90;;;;;;5068271;28;20390;-62
2022/07/15 00:30:01;;;;;;;7.57;2.40;;;15.70;99.90;;;;;;5062554;28;20052;-61
2022/07/15 00:32:27;;;;;;;8.85;1.88;;;15.70;99.90;;;;;;5058458;28;20567;-62
2022/07/15 00:34:53;;;;;;;6.35;1.85;;;15.60;99.90;;;;;;5066456;28;20132;-62
2022/07/15 00:37:19;;;;;;;9.88;2.13;;;15.60;99.90;;;;;;5070465;28;20109;-61
2022/07/15 00:39:45;;;;;;;8.52;2.10;;;15.60;99.90;;;;;;5068397;28;20048;-61
2022/07/15 00:44:59;;;;;;;9.00;2.10;;;15.50;99.90;;;;;;5057472;28;20517;-62
2022/07/15 00:47:25;;;;;;;11.27;2.05;;;15.50;99.90;;;;;;5059598;28;20478;-61
2022/07/15 00:49:50;;;;;;;6.32;1.73;;;15.40;99.90;;;;;;5068495;28;20110;-61
2022/07/15 00:52:19;;;;;;;8.80;2.00;;;15.40;99.90;;;;;;5071180;28;20086;-62
2022/07/15 00:54:46;;;;;;;9.25;1.95;;;15.40;99.90;;;;;;5068894;28;20052;-61
2022/07/15 00:57:15;;;;;;;7.47;2.03;;;15.30;99.90;;;;;;5071134;28;20466;-62
2022/07/15 00:59:41;;;;;;;9.30;2.10;;;15.30;99.90;;;;;;5067715;28;20265;-61
2022/07/15 01:02:08;;;;;;;11.30;2.33;;;15.20;99.90;;;;;;5055029;28;20149;-62
2022/07/15 01:04:34;;;;;;;8.57;1.90;;;15.20;99.90;;;;;;5060518;28;20048;-64
2022/07/15 01:07:00;;;;;;;10.05;2.05;;;15.10;99.90;;;;;;5051037;28;20045;-61
2022/07/15 01:09:26;;;;;;;5.60;1.80;;;15.10;99.90;;;;;;5054317;28;20043;-62
2022/07/15 01:11:52;;;;;;;11.65;1.83;;;15.10;99.90;;;;;;5055307;28;20052;-62
2022/07/15 01:14:18;;;;;;;7.72;2.00;;;15.10;99.90;;;;;;5083684;28;20048;-61
2022/07/15 01:16:43;;;;;;;5.95;1.77;;;15.10;99.90;;;;;;5070498;28;20486;-61
2022/07/15 01:19:09;;;;;;;9.65;1.75;;;15.10;99.90;;;;;;5068511;28;20074;-61
2022/07/15 01:21:35;;;;;;;4.68;1.48;;;15.10;99.90;;;;;;5068357;28;20528;-63
2022/07/15 01:24:01;;;;;;;4.90;1.48;;;15.10;99.90;;;;;;5051964;28;20117;-62
2022/07/15 01:26:26;;;;;;;5.95;1.70;;;15.10;99.90;;;;;;5050658;28;20490;-61
2022/07/15 01:28:52;;;;;;;6.57;1.60;;;15.10;99.90;;;;;;5050728;28;20059;-61
2022/07/15 01:31:18;;;;;;;5.25;1.70;;;15.10;99.90;;;;;;5059636;28;20190;-62
2022/07/15 01:33:43;;;;;;;6.35;1.48;;;15.10;99.90;;;;;;5049982;28;20072;-61
2022/07/15 01:36:10;;;;;;;5.85;1.60;;;15.10;99.90;;;;;;5059816;28;20074;-61
2022/07/15 01:38:36;;;;;;;5.85;1.50;;;15.00;99.90;;;;;;5056477;28;20083;-61
2022/07/15 01:41:02;;;;;;;5.10;1.25;;;15.00;99.90;;;;;;5054261;28;20072;-65
2022/07/15 01:43:28;;;;;;;4.82;1.20;;;15.10;99.90;;;;;;5068363;28;20098;-61
2022/07/15 01:45:54;;;;;;;5.95;1.70;;;15.00;99.90;;;;;;5069484;28;20048;-62
2022/07/15 01:51:04;;;;;;;5.15;1.25;;;14.90;99.90;;;;;;5070129;28;20098;-62
2022/07/15 01:53:29;;;;;;;7.95;1.42;;;14.90;99.90;;;;;;5068721;28;20036;-61
2022/07/15 01:55:55;;;;;;;6.93;2.00;;;14.90;99.90;;;;;;5068622;28;20456;-61
2022/07/15 01:58:21;;;;;;;3.95;1.35;;;14.90;99.90;;;;;;5066888;28;20081;-61
2022/07/15 02:00:49;;;;;;;7.65;1.60;;;14.90;99.90;;;;;;5061501;28;20077;-62
2022/07/15 02:03:15;;;;;;;6.22;1.73;;;14.80;99.90;;;;;;5057409;28;20399;-61
2022/07/15 02:05:41;;;;;;;4.50;1.40;;;14.80;99.90;;;;;;5070293;28;20106;-63
2022/07/15 02:08:07;;;;;;;8.27;1.30;;;14.80;99.90;;;;;;5062802;28;20037;-62
2022/07/15 02:10:42;;;;;;;4.60;1.17;;;14.80;99.90;;;;;;5067505;28;20041;-63
2022/07/15 02:13:13;;;;;;;3.30;1.30;;;14.80;99.90;;;;;;5064935;28;20037;-62
2022/07/15 02:15:39;;;;;;;3.53;1.20;;;14.80;99.90;;;;;;5067610;28;20454;-61
2022/07/15 02:18:05;;;;;;;6.15;1.35;;;14.70;99.90;;;;;;5069445;28;20056;-61
2022/07/15 02:20:31;;;;;;;8.45;1.85;;;14.70;99.90;;;;;;5060432;28;20095;-61
2022/07/15 02:22:57;;;;;;;5.18;1.50;;;14.70;99.90;;;;;;5067258;28;20080;-61
2022/07/15 02:25:28;;;;;;;4.40;1.10;;;14.60;99.90;;;;;;5058671;28;20517;-61
2022/07/15 02:27:58;;;;;;;6.15;1.25;;;14.60;99.90;;;;;;5069801;28;20494;-61
2022/07/15 02:30:31;;;;;;;4.72;1.40;;;14.60;99.90;;;;;;5051135;28;20101;-61
2022/07/15 02:32:56;;;;;;;4.43;1.30;;;14.50;99.90;;;;;;5064608;28;20044;-61
2022/07/15 02:35:23;;;;;;;4.50;1.20;;;14.50;99.90;;;;;;5063643;28;20041;-61
2022/07/15 02:37:49;;;;;;;4.50;1.35;;;14.50;99.90;;;;;;5068061;28;20110;-62
2022/07/15 02:40:15;;;;;;;4.30;1.30;;;14.40;99.90;;;;;;5062097;28;20049;-61
2022/07/15 02:42:50;;;;;;;3.00;1.08;;;14.40;99.90;;;;;;5065025;28;20500;-62
2022/07/15 02:45:17;;;;;;;3.22;1.23;;;14.40;99.90;;;;;;5066922;28;20524;-62
2022/07/15 02:47:42;;;;;;;5.93;1.13;;;14.40;99.90;;;;;;5069619;28;20120;-62
2022/07/15 02:50:08;;;;;;;4.53;1.10;;;14.40;99.90;;;;;;5069672;28;20147;-61
2022/07/15 02:52:34;;;;;;;3.13;1.13;;;14.40;99.90;;;;;;5070684;28;20055;-62
2022/07/15 02:55:01;;;;;;;3.92;1.10;;;14.40;99.90;;;;;;5072143;28;20048;-59
2022/07/15 02:57:27;;;;;;;4.28;1.20;;;14.30;99.90;;;;;;5058929;28;20049;-62
2022/07/15 02:59:53;;;;;;;4.03;1.20;;;14.30;99.90;;;;;;5070181;28;20052;-62
2022/07/15 03:02:19;;;;;;;4.38;1.20;;;14.30;99.90;;;;;;5064021;28;20064;-61
2022/07/15 03:04:45;;;;;;;6.07;1.20;;;14.30;99.90;;;;;;5071666;28;20470;-62
2022/07/15 03:07:11;;;;;;;8.32;1.80;;;14.30;99.90;;;;;;5068590;28;20366;-61
2022/07/15 03:09:37;;;;;;;4.78;1.48;;;14.30;99.90;;;;;;5071794;28;20049;-61
2022/07/15 03:12:03;;;;;;;4.30;1.48;;;14.40;99.90;;;;;;5065534;28;20452;-61
2022/07/15 03:14:29;;;;;;;6.22;1.25;;;14.40;99.90;;;;;;5056818;28;20044;-61
2022/07/15 03:16:54;;;;;;;5.65;1.20;;;14.40;99.90;;;;;;5069387;28;20083;-61
2022/07/15 03:19:20;;;;;;;4.32;1.25;;;14.40;99.90;;;;;;5070060;28;20490;-61
2022/07/15 03:21:47;;;;;;;4.80;1.10;;;14.40;99.90;;;;;;5070966;28;20052;-61
2022/07/15 03:24:14;;;;;;;4.88;1.20;;;14.30;99.90;;;;;;5057509;28;20052;-61
2022/07/15 03:26:39;;;;;;;4.93;1.50;;;14.30;99.90;;;;;;5065378;28;20045;-61
2022/07/15 03:29:05;;;;;;;4.28;1.20;;;14.30;99.90;;;;;;5066979;28;20051;-62
2022/07/15 03:31:31;;;;;;;8.50;1.85;;;14.30;99.90;;;;;;5061972;28;20385;-62
2022/07/15 03:33:57;;;;;;;4.75;1.50;;;14.30;99.90;;;;;;5065131;28;20058;-62
2022/07/15 03:36:25;;;;;;;3.08;1.30;;;14.30;99.90;;;;;;5064552;28;20107;-61
2022/07/15 03:38:51;;;;;;;6.25;1.30;;;14.40;99.90;;;;;;5071390;28;20098;-61
2022/07/15 03:41:21;;;;;;;2.97;1.05;;;14.40;99.90;;;;;;5070384;28;20036;-62
2022/07/15 03:43:46;;;;;;;4.20;1.20;;;14.40;99.90;;;;;;5069902;28;20131;-61
2022/07/15 03:46:15;;;;;;;3.42;1.30;;;14.40;99.90;;;;;;5071682;28;20128;-61
2022/07/15 03:48:41;;;;;;;4.57;1.30;;;14.40;99.90;;;;;;5071681;28;20052;-62
2022/07/15 03:51:07;;;;;;;5.72;1.30;;;14.40;99.90;;;;;;5071898;28;20064;-61
2022/07/15 03:53:32;;;;;;;5.43;1.70;;;14.40;99.90;;;;;;5069275;28;20094;-61
2022/07/15 03:55:58;;;;;;;3.65;1.33;;;14.50;99.90;;;;;;5066177;28;20410;-61
2022/07/15 03:58:24;;;;;;;4.97;1.35;;;14.50;99.90;;;;;;5071268;28;20048;-62
2022/07/15 04:00:49;;;;;;;3.65;1.17;;;14.50;99.90;;;;;;5061532;28;20394;-62
2022/07/15 04:03:16;;;;;;;5.65;1.23;;;14.50;99.90;;;;;;5061758;28;20498;-61
2022/07/15 04:05:42;;;;;;;9.60;1.65;;;14.50;99.90;;;;;;5054881;28;20127;-61
2022/07/15 04:08:08;;;;;;;3.65;0.95;;;14.50;99.90;;;;;;5054819;28;20123;-61
2022/07/15 04:10:34;;;;;;;3.20;1.17;;;14.50;99.90;;;;;;5051972;28;20119;-62
2022/07/15 04:13:00;;;;;;;3.20;0.98;;;14.50;99.90;;;;;;5053330;28;20074;-62
2022/07/15 04:15:25;;;;;;;4.88;1.38;;;14.50;99.90;;;;;;5056391;28;20040;-61
2022/07/15 04:17:51;;;;;;;2.75;1.10;;;14.50;99.90;;;;;;5056680;28;20045;-61
2022/07/15 04:20:17;;;;;;;4.63;1.50;;;;;;;;;;5059284;28;20083;-62
2022/07/15 04:22:44;;;;;;;3.92;1.33;;;14.60;99.90;;;;;;5070312;28;20109;-62
2022/07/15 04:25:13;;;;;;;5.63;1.20;;;14.60;99.90;;;;;;5063744;28;20055;-61
2022/07/15 04:27:39;;;;;;;5.22;1.50;;;14.50;99.90;;;;;;5051278;28;20057;-61
2022/07/15 04:30:06;;;;;;;2.15;1.08;;;14.50;99.90;;;;;;5055651;28;20559;-61
2022/07/15 04:32:32;;;;;;;1.90;1.08;;;14.50;99.90;;;;;;5056224;28;20204;-63
2022/07/15 04:34:58;;;;;;;3.35;1.10;;;14.50;99.90;;;;;;5051781;28;20041;-62
2022/07/15 04:37:24;;;;;;;4.88;1.42;;;14.50;99.90;;;;;;5052178;28;20060;-61
2022/07/15 04:39:49;;;;;;;3.75;1.20;;;14.50;99.90;;;;;;5057429;28;20052;-61
2022/07/15 04:42:15;;;;;;;3.97;1.10;;;14.50;99.90;;;;;;5050792;28;20049;-61
2022/07/15 04:44:41;;;;;;;7.18;1.20;;;14.60;99.90;;;;;;5051039;28;20124;-61
2022/07/15 04:47:06;;;;;;;3.60;1.10;;;14.70;99.90;;;;;;5056831;28;20041;-61
2022/07/15 04:52:17;;;;;;;3.45;1.17;;;14.80;99.90;;;;;;5050814;28;20056;-62
2022/07/15 04:54:42;;;;;;;4.65;1.35;;;14.80;99.90;;;;;;5056486;28;20386;-61
2022/07/15 04:57:08;;;;;;;2.08;0.95;;;14.80;99.90;;;;;;5055907;28;20461;-61
2022/07/15 04:59:34;;;;;;;3.45;1.10;;;14.80;99.90;;;;;;5057071;28;20125;-61
2022/07/15 05:02:00;;;;;;;2.95;1.13;;;14.70;99.90;;;;;;5052317;28;20132;-62
2022/07/15 05:04:26;;;;;;;5.88;1.38;;;14.80;99.90;;;;;;5050456;28;20041;-62
2022/07/15 05:06:52;;;;;;;6.22;1.20;;;14.80;99.90;;;;;;5059234;28;20094;-62
2022/07/15 05:09:17;;;;;;;5.22;1.08;;;14.90;99.90;;;;;;5051386;28;20047;-61
2022/07/15 05:11:43;;;;;;;4.55;1.40;;;14.90;99.90;;;;;;5044553;28;20394;-61
2022/07/15 05:14:10;;;;;;;3.30;1.20;;;14.90;99.90;;;;;;5051384;28;20041;-61
2022/07/15 05:16:35;;;;;;;3.20;1.10;;;15.00;99.90;;;;;;5066593;28;20056;-61
2022/07/15 05:19:01;;;;;;;3.42;1.20;;;15.00;99.90;;;;;;5057483;28;20044;-61
2022/07/15 05:21:27;;;;;;;2.67;1.00;;;15.00;99.90;;;;;;5069926;28;20326;-61
2022/07/15 05:23:53;;;;;;;4.82;1.52;;;15.00;99.90;;;;;;5069766;28;20098;-61
2022/07/15 05:26:19;;;;;;;5.22;1.30;;;15.10;99.90;;;;;;5057446;28;20397;-61
2022/07/15 05:28:44;;;;;;;4.78;1.10;;;15.10;99.90;;;;;;5060965;28;20131;-62
2022/07/15 05:31:10;;;;;;;4.30;1.10;;;15.20;99.90;;;;;;5050999;28;20052;-61
2022/07/15 05:33:36;;;;;;;6.30;1.23;;;15.30;99.90;;;;;;5062034;28;20044;-61
2022/07/15 05:36:02;;;;;;;4.82;1.15;;;16.10;99.90;;;;;;5057830;28;20545;-61
2022/07/15 05:38:28;;;;;;;4.65;1.17;;;16.90;99.90;;;;;;5050916;28;20189;-61
2022/07/15 05:40:53;;;;;;;3.60;1.08;;;17.20;99.90;;;;;;5054091;28;20519;-62
2022/07/15 05:43:20;;;;;;;4.53;1.10;;;17.70;99.90;;;;;;5055122;28;20437;-62
2022/07/15 05:45:46;;;;;;;4.72;1.20;;;18.00;99.90;;;;;;5052004;28;20513;-62
2022/07/15 05:48:11;;;;;;;4.38;1.42;;;17.90;99.90;;;;;;5044438;28;20048;-62
2022/07/15 05:50:37;;;;;;;4.07;0.88;;;17.60;99.90;;;;;;5055021;28;20124;-62
2022/07/15 05:53:03;;;;;;;5.10;1.10;;;17.30;99.90;;;;;;5035166;28;20048;-62
2022/07/15 05:55:29;;;;;;;3.60;1.10;;;17.00;99.90;;;;;;5056633;28;20048;-62
2022/07/15 05:57:55;;;;;;;4.55;1.20;;;16.80;99.90;;;;;;5050670;28;20045;-61
2022/07/15 06:00:20;;;;;;;2.47;1.05;;;16.60;99.90;;;;;;5060633;28;20076;-62
2022/07/15 06:02:46;;;;;;;4.60;1.30;;;16.50;99.90;;;;;;5054714;28;20110;-62
2022/07/15 06:05:12;;;;;;;3.92;1.13;;;16.30;99.90;;;;;;5056650;28;20044;-64
2022/07/15 06:07:38;;;;;;;3.45;0.90;;;16.20;99.90;;;;;;5051613;28;20048;-62
2022/07/15 06:10:05;;;;;;;6.03;1.27;;;16.10;99.90;;;;;;5056685;28;20123;-62
2022/07/15 06:12:30;;;;;;;2.58;1.10;;;16.10;99.90;;;;;;5049714;28;20049;-64
2022/07/15 06:14:56;;;;;;;6.35;1.33;;;16.00;99.90;;;;;;5027281;28;20182;-64
2022/07/15 06:17:22;;;;;;;5.68;1.50;;;15.90;99.90;;;;;;5063989;28;20048;-62
2022/07/15 06:19:48;;;;;;;3.25;1.10;;;15.80;99.90;;;;;;5070088;28;20055;-62
2022/07/15 06:22:14;;;;;;;4.53;1.58;;;15.70;99.90;;;;;;5067228;28;20055;-64
2022/07/15 06:24:39;;;;;;;3.33;1.48;;;15.60;99.90;;;;;;5071622;28;20048;-62
2022/07/15 06:27:05;;;;;;;2.92;1.20;;;15.50;99.90;;;;;;5072928;28;20052;-62
2022/07/15 06:29:32;;;;;;;4.80;1.02;;;15.40;99.90;;;;;;5065586;28;20052;-62
2022/07/15 06:31:58;;;;;;;8.90;1.73;;;15.40;99.90;;;;;;5058794;28;20055;-62
2022/07/15 06:34:24;;;;;;;5.47;1.60;;;15.40;99.90;;;;;;5053364;28;20386;-61
2022/07/15 06:36:50;;;;;;;3.85;1.20;;;15.60;99.90;;;;;;5058628;28;20043;-62
2022/07/15 06:39:17;;;;;;;3.75;1.13;;;16.00;99.90;;;;;;5060493;28;20156;-65
2022/07/15 06:41:43;;;;;;;6.35;1.40;;;16.10;99.90;;;;;;5061835;28;20060;-62
2022/07/15 06:44:08;;;;;;;4.13;1.02;;;16.10;99.90;;;;;;5082085;28;20045;-62
2022/07/15 06:46:34;;;;;;;3.28;1.38;;;16.00;99.90;;;;;;5061562;28;20135;-62
2022/07/15 06:49:00;;;;;;;3.08;1.20;;;15.90;99.90;;;;;;5055824;28;20103;-62
2022/07/15 06:51:26;;;;;;;8.35;1.40;;;15.90;99.90;;;;;;5051922;28;20044;-62
2022/07/15 06:53:52;;;;;;;3.72;1.02;;;15.80;99.90;;;;;;5054144;28;20110;-63
2022/07/15 06:56:17;;;;;;;1.92;1.05;;;15.90;99.90;;;;;;5070445;28;20047;-61
2022/07/15 06:58:43;;;;;;;2.85;1.00;;;16.00;99.90;;;;;;5056126;28;20536;-62
2022/07/15 07:01:09;;;;;;;3.80;2.03;;;16.10;99.90;;;;;;5073147;28;20064;-61
2022/07/15 07:03:34;;;;;;;2.25;0.95;;;16.10;99.90;;;;;;5073040;28;20074;-62
2022/07/15 07:06:00;;;;;;;4.93;1.17;;;16.10;99.90;;;;;;5066939;28;20040;-62
2022/07/15 07:08:27;;;;;;;5.88;1.30;;;16.20;99.90;;;;;;5055038;28;20064;-63
2022/07/15 07:10:53;;;;;;;6.68;1.63;;;16.40;99.90;;;;;;5066029;28;20061;-61
2022/07/15 07:13:19;;;;;;;4.88;1.50;;;16.90;99.90;;;;;;5073237;28;20076;-63
2022/07/15 07:15:44;;;;;;;4.07;1.30;;;17.20;99.90;;;;;;5058694;28;20040;-62
2022/07/15 07:18:10;;;;;;;5.80;1.50;;;17.20;99.90;;;;;;5073070;28;20048;-62
2022/07/15 07:20:37;;;;;;;6.72;1.70;;;17.20;99.90;;;;;;5051388;28;20052;-62
2022/07/15 07:23:03;;;;;;;2.72;1.10;;;17.20;99.90;;;;;;5071867;28;20068;-62
2022/07/15 07:25:29;;;;;;;5.80;1.45;;;17.20;99.90;;;;;;5070872;28;20068;-62
2022/07/15 07:27:55;;;;;;;5.40;1.08;;;;;;;;;;5070918;28;20065;-62
2022/07/15 07:30:21;;;;;;;3.70;1.23;;;17.30;99.90;;;;;;5065970;28;20045;-62
2022/07/15 07:32:47;;;;;;;3.53;1.10;;;19.10;99.90;;;;;;5066105;28;20501;-62
2022/07/15 07:35:12;;;;;;;4.90;1.35;;;19.50;99.90;;;;;;5052614;28;20041;-62
2022/07/15 07:37:38;;;;;;;5.25;1.13;;;19.40;99.90;;;;;;5052201;28;20076;-62
2022/07/15 07:40:08;;;;;;;4.03;1.45;;;19.20;99.90;;;;;;5051761;28;20107;-62
2022/07/15 07:42:34;;;;;;;7.30;1.00;;;19.00;99.90;;;;;;5052316;28;20053;-62
2022/07/15 07:45:01;;;;;;;5.82;1.00;;;18.70;99.90;;;;;;5052557;28;20509;-61
2022/07/15 07:47:27;;;;;;;1.65;0.93;;;18.40;99.90;;;;;;5052143;28;20056;-63
2022/07/15 07:49:53;;;;;;;1.90;0.60;;;18.20;99.90;;;;;;5052472;28;20081;-63
2022/07/15 07:52:18;;;;;;;2.42;1.05;;;18.00;99.90;;;;;;5060079;28;20095;-61
2022/07/15 07:54:44;;;;;;;4.32;0.85;;;17.90;99.90;;;;;;5063101;28;20190;-61
2022/07/15 07:57:13;;;;;;;4.50;1.17;;;17.90;99.90;;;;;;5062588;28;20537;-61
2022/07/15 07:59:39;;;;;;;2.35;1.05;;;18.00;99.90;;;;;;5055115;28;20045;-61
2022/07/15 08:02:04;;;;;;;4.15;1.08;;;18.10;99.90;;;;;;5058586;28;20064;-61
2022/07/15 08:04:30;;;;;;;1.85;0.77;;;18.10;99.90;;;;;;5053522;28;20048;-61
2022/07/15 08:06:57;;;;;;;2.50;0.80;;;18.20;99.90;;;;;;5054650;28;20447;-60
2022/07/15 08:09:23;;;;;;;1.85;0.75;;;18.20;99.90;;;;;;5054282;28;20037;-60
2022/07/15 08:11:48;;;;;;;1.88;0.50;;;18.20;99.90;;;;;;5057481;28;20316;-60
2022/07/15 08:14:14;;;;;;;1.85;0.80;;;18.30;99.90;;;;;;5054550;28;20483;-61
2022/07/15 08:16:42;;;;;;;4.18;0.73;;;18.50;99.90;;;;;;5062908;28;20041;-60
2022/07/15 08:19:08;;;;;;;1.52;0.68;;;18.90;99.90;;;;;;5069348;28;20052;-59
2022/07/15 08:21:34;;;;;;;2.83;0.70;;;19.40;99.90;;;;;;5063445;28;20051;-61
2022/07/15 08:24:00;;;;;;;4.45;1.00;;;19.50;99.90;;;;;;5064671;28;20037;-60
2022/07/15 08:26:26;;;;;;;2.55;0.90;;;19.20;99.90;;;;;;5066236;28;20124;-59
2022/07/15 08:28:51;;;;;;;2.05;0.50;;;18.90;99.90;;;;;;5058837;28;20573;-60
2022/07/15 08:31:18;;;;;;;1.35;0.55;;;18.70;99.90;;;;;;5051555;28;20049;-60
2022/07/15 08:33:45;;;;;;;3.80;1.00;;;18.70;99.90;;;;;;5053417;28;20056;-60
2022/07/15 08:36:11;;;;;;;1.35;0.68;;;18.60;99.90;;;;;;5052597;28;20375;-62
2022/07/15 08:38:37;;;;;;;3.53;0.75;;;18.60;99.90;;;;;;5073682;28;20370;-60
2022/07/15 08:41:03;;;;;;;2.58;0.60;;;18.60;99.90;;;;;;5053897;28;20402;-60
2022/07/15 08:43:29;;;;;;;2.42;0.75;;;18.80;99.90;;;;;;5059071;28;20037;-62
2022/07/15 08:45:56;;;;;;;2.47;0.85;;;19.10;99.90;;;;;;5068347;28;20052;-61
2022/07/15 08:48:28;;;;;;;5.20;0.80;;;19.40;99.90;;;;;;5059394;28;20044;-61
2022/07/15 08:50:55;;;;;;;3.00;0.82;;;19.70;99.70;;;;;;5085658;28;20052;-62
2022/07/15 08:53:21;;;;;;;3.25;0.65;;;19.90;99.80;;;;;;5066250;28;20049;-61
2022/07/15 08:55:47;;;;;;;2.40;0.65;;;19.80;99.90;;;;;;5070285;28;20048;-62
2022/07/15 08:58:13;;;;;;;1.88;0.60;;;19.60;99.40;;;;;;5070878;28;20556;-61
2022/07/15 09:00:39;;;;;;;4.05;0.85;;;19.40;99.40;;;;;;5066083;28;20127;-61
2022/07/15 09:03:06;;;;;;;2.67;0.93;;;19.30;99.90;;;;;;5068319;28;20084;-61
2022/07/15 09:05:37;;;;;;;2.05;0.70;;;19.20;99.50;;;;;;5067396;28;20213;-61
2022/07/15 09:08:04;;;;;;;2.17;0.77;;;19.50;99.90;;;;;;5069583;28;20048;-62
2022/07/15 09:10:57;;;;;;;1.42;0.68;;;20.50;99.60;;;;;;5067117;28;20512;-63
2022/07/15 09:13:25;;;;;;;3.78;0.77;;;21.40;97.60;;;;;;5068656;28;20111;-62
2022/07/15 09:15:53;;;;;;;2.17;0.63;;;21.60;96.50;;;;;;5064278;28;20165;-61
2022/07/15 09:18:21;;;;;;;2.00;0.65;;;21.50;96.20;;;;;;5070386;28;20040;-61
2022/07/15 09:20:47;;;;;;;2.55;0.90;;;21.20;96.00;;;;;;5053513;28;20057;-63
2022/07/15 09:23:20;;;;;;;1.25;0.73;;;20.70;96.00;;;;;;5058024;28;20501;-62
2022/07/15 09:25:49;;;;;;;2.20;0.70;;;20.30;96.10;;;;;;5062595;28;20153;-61
2022/07/15 09:28:15;;;;;;;3.05;0.80;;;20.00;96.60;;;;;;5074147;28;20186;-62
2022/07/15 09:33:43;;;;;;;2.58;0.70;;;19.80;97.50;;;;;;5050146;28;20064;-61
2022/07/15 09:36:09;;;;;;;4.55;0.77;;;19.80;97.40;;;;;;5058909;28;20107;-62
2022/07/15 09:38:49;;;;;;;2.70;0.77;;;19.70;97.50;;;;;;5050894;28;20512;-61
2022/07/15 09:41:27;;;;;;;1.42;0.63;;;19.70;97.90;;;;;;5056090;28;20049;-61
2022/07/15 09:44:05;;;;;;;2.78;0.80;;;19.50;97.70;;;;;;5052975;28;20040;-61
2022/07/15 09:46:49;;;;;;;2.40;0.70;;;19.50;97.90;;;;;;5065852;28;20041;-61
2022/07/15 09:49:15;;;;;;;;;;;19.60;97.80;;;;;;5057484;28;20131;-61
2022/07/15 09:51:55;;;;;;;2.70;0.93;;;19.60;97.20;;;;;;5070801;28;20011;-62
2022/07/15 09:54:23;;;;;;;4.95;0.80;;;19.70;97.00;;;;;;5058947;28;20125;-61
2022/07/15 09:56:49;;;;;;;2.45;1.00;;;19.90;97.20;;;;;;5057578;28;20041;-61
2022/07/15 09:59:15;;;;;;;4.10;1.20;;;20.00;96.90;;;;;;5074990;28;20056;-62
2022/07/15 10:01:42;;;;;;;2.47;0.70;;;20.10;97.30;;;;;;5073366;28;20477;-63
2022/07/15 10:04:09;;;;;;;1.83;0.95;;;20.10;97.30;;;;;;5068432;28;20118;-62
2022/07/15 10:06:38;;;;;;;2.83;1.00;;;20.20;96.50;;;;;;5064168;28;20047;-61
2022/07/15 10:09:06;;;;;;;2.55;0.73;;;20.30;96.30;;;;;;5063248;28;20396;-62
2022/07/15 10:11:35;;;;;;;2.55;0.60;;;20.30;96.10;;;;;;5070834;28;20115;-61
2022/07/15 10:14:19;;;;;;;3.58;0.80;;;20.30;96.20;;;;;;5055541;28;20041;-61
2022/07/15 10:17:04;;;;;;;2.55;0.90;;;20.30;96.50;;;;;;5060705;28;20382;-61
2022/07/15 10:20:00;;;;;;;2.45;0.80;;;20.20;96.20;;;;;;5072217;28;20041;-61
2022/07/15 10:22:37;;;;;;;3.40;0.65;;;20.20;96.20;;;;;;5071628;28;20393;-61
2022/07/15 10:25:17;;;;;;;5.18;1.08;;;20.30;96.70;;;;;;5073734;28;20044;-61
2022/07/15 10:28:08;;;;;;;1.70;0.95;;;20.60;95.70;;;;;;5061666;28;20555;-62
2022/07/15 10:30:34;;;;;;;1.45;0.70;;;20.70;95.80;;;;;;5066881;28;20052;-61
2022/07/15 10:33:03;;;;;;;2.28;0.73;;;20.90;96.00;;;;;;5057668;28;20055;-63
2022/07/15 10:35:43;;;;;;;2.95;1.00;;;21.00;95.90;;;;;;5069733;28;20079;-62
2022/07/15 10:38:34;;;;;;;1.38;0.70;;;21.00;95.20;;;;;;5054606;28;20049;-62
2022/07/15 10:41:14;;;;;;;2.35;0.68;;;20.90;94.90;;;;;;5053272;28;20402;-62
2022/07/15 10:43:53;;;;;;;1.73;0.52;;;20.90;94.60;;;;;;5056673;28;20057;-61
2022/07/15 10:46:25;;;;;;;1.80;0.52;;;20.70;94.80;;;;;;5056481;28;20029;-62
2022/07/15 10:48:58;;;;;;;2.40;0.73;;;20.50;95.10;;;;;;5058627;28;20048;-62
2022/07/15 10:51:45;;;;;;;3.72;0.70;;;20.40;95.40;;;;;;5066682;28;20098;-62
2022/07/15 10:54:33;;;;;;;2.90;0.70;;;20.10;95.60;;;;;;5062011;28;20371;-63
2022/07/15 10:57:00;;;;;;;5.80;1.00;;;20.00;96.00;;;;;;5052062;28;20053;-62
2022/07/15 10:59:26;;;;;;;2.15;0.50;;;19.90;95.90;;;;;;5072283;28;20076;-62
2022/07/15 11:02:01;;;;;;;3.67;0.77;;;19.80;96.20;;;;;;5057557;28;20099;-62
2022/07/15 11:04:29;;;;;;;1.80;0.70;;;19.80;96.20;;;;;;5053848;28;20092;-61
2022/07/15 11:09:49;;;;;;;3.50;0.93;;;19.70;96.20;;;;;;5061238;28;20470;-60
2022/07/15 11:12:20;;;;;;;3.33;0.80;;;19.70;96.20;;;;;;5062701;28;20061;-61
2022/07/15 11:14:56;;;;;;;5.35;0.90;;;19.60;95.60;;;;;;5055153;28;20044;-61
2022/07/15 11:17:44;;;;;;;4.43;0.77;;;19.60;95.60;;;;;;5068593;28;20048;-61
2022/07/15 11:20:31;;;;;;;3.17;0.88;;;19.60;96.10;;;;;;5059613;28;20115;-61
2022/07/15 11:22:58;;;;;;;3.20;0.90;;;19.70;96.00;;;;;;5068614;28;20098;-62
2022/07/15 11:25:33;;;;;;;1.23;0.60;;;19.70;95.70;;;;;;5059008;28;20047;-61
2022/07/15 11:28:08;;;;;;;1.58;0.65;;;19.80;95.70;;;;;;5051669;28;20049;-60
2022/07/15 11:30:39;;;;;;;2.97;1.10;;;19.90;95.90;;;;;;5054110;28;20044;-61
2022/07/15 11:33:08;;;;;;;2.70;0.75;;;19.90;95.70;;;;;;5060767;28;20049;-63
2022/07/15 11:35:46;;;;;;;1.90;0.80;;;19.90;95.20;;;;;;5056498;28;20119;-62
2022/07/15 11:38:12;;;;;;;1.75;0.80;;;20.00;95.30;;;;;;5046120;28;20044;-61
2022/07/15 11:46:14;;;;;;;3.17;0.95;;;20.40;95.20;;;;;;5065940;28;20052;-61
2022/07/15 11:48:40;;;;;;;2.20;0.80;;;20.40;95.50;;;;;;5052577;28;20119;-62
2022/07/15 11:51:09;;;;;;;1.77;0.75;;;20.50;95.70;;;;;;5053447;28;20060;-61
2022/07/15 11:53:41;;;;;;;1.08;0.65;;;20.60;95.40;;;;;;5054816;28;20187;-62
2022/07/15 11:56:08;;;;;;;3.03;0.95;;;20.60;95.60;;;;;;5059629;28;20036;-62
2022/07/15 11:58:36;;;;;;;2.35;1.00;;;20.80;95.50;;;;;;5051453;28;20126;-61
2022/07/15 12:01:28;;;;;;;2.47;0.95;;;20.90;94.70;;;;;;5051773;28;20054;-62
2022/07/15 12:03:55;;;;;;;3.88;1.05;;;20.90;94.60;;;;;;5056205;28;20383;-61
2022/07/15 12:06:30;;;;;;;2.28;0.80;;;20.80;95.10;;;;;;5057308;28;20056;-61
2022/07/15 12:08:59;;;;;;;2.38;1.05;;;20.90;95.00;;;;;;5052292;28;20138;-61
2022/07/15 12:11:36;;;;;;;4.93;1.05;;;20.70;95.70;;;;;;5051757;28;20051;-62
2022/07/15 12:14:17;;;;;;;2.63;1.00;;;20.70;95.70;;;;;;5059734;28;20052;-61
2022/07/15 12:16:47;;;;;;;3.83;0.90;;;20.70;96.20;;;;;;5070119;28;20602;-61
2022/07/15 12:19:15;;;;;;;5.43;1.25;;;20.70;95.90;;;;;;5071855;28;20398;-61
2022/07/15 12:21:43;;;;;;;2.53;1.10;;;20.60;96.00;;;;;;5071279;28;20040;-61
2022/07/15 12:24:12;;;;;;;3.65;1.10;;;20.50;96.20;;;;;;5068421;28;20076;-61
2022/07/15 12:26:52;;;;;;;3.10;1.02;;;20.40;96.60;;;;;;5070121;28;20036;-61
2022/07/15 12:29:23;;;;;;;2.50;1.20;;;20.30;97.00;;;;;;5069835;28;20119;-61
2022/07/15 12:31:54;;;;;;;2.08;0.90;;;20.30;97.20;;;;;;5059927;28;20051;-61
2022/07/15 12:34:20;;;;;;;3.30;1.10;;;20.20;97.50;;;;;;5057991;28;20051;-61
2022/07/15 12:36:56;;;;;;;3.22;1.13;;;20.20;97.40;;;;;;5069985;28;20063;-61
2022/07/15 12:39:22;;;;;;;9.20;1.52;;;20.20;97.60;;;;;;5071403;28;20044;-61
2022/07/15 12:42:10;;;;;;;2.28;0.95;;;20.10;97.90;;;;;;5071888;28;20074;-61
2022/07/15 12:44:35;;;;;;;2.75;1.27;;;20.20;98.20;;;;;;5069988;28;20189;-61
2022/07/15 12:47:04;;;;;;;4.88;1.50;;;20.20;98.40;;;;;;5069795;28;20048;-61
2022/07/15 12:49:50;;;;;;;7.05;1.67;;;20.10;98.60;;;;;;5053945;28;20050;-61
2022/07/15 12:52:22;;;;;;;7.93;1.75;;;20.00;99.20;;;;;;5059482;28;20052;-61
2022/07/15 12:54:51;;;;;;;5.40;1.67;;;19.90;99.10;;;;;;5069684;28;20040;-61
2022/07/15 12:57:31;;;;;;;3.58;1.13;;;19.90;98.90;;;;;;5069470;28;20044;-61
2022/07/15 13:00:05;;;;;;;2.70;0.77;;;19.80;98.20;;;;;;5066878;28;20052;-60
2022/07/15 13:02:32;;;;;;;2.83;1.10;;;19.80;97.90;;;;;;5070832;28;20063;-59
2022/07/15 13:04:58;;;;;;;2.85;1.02;;;19.80;98.20;;;;;;5065254;28;20060;-59
2022/07/15 13:07:24;;;;;;;4.15;1.33;;;19.80;98.10;;;;;;5078681;28;20045;-58
2022/07/15 13:09:51;;;;;;;2.60;1.02;;;19.90;98.00;;;;;;5065422;28;20383;-58
2022/07/15 13:12:16;;;;;;;3.20;1.20;;;20.00;98.20;;;;;;5053475;28;20124;-58